sensor_id;sensor_type;location;lat;lon;timestamp;pressure;altitude;pressure_sealevel;temperature;humidity
7524;BME280;3803;51.666;7.630;2023-11-22T00:00:15;102007.94;;;9.97;55.16
7524;BME280;3803;51.666;7.630;2023-11-22T00:00:36;102010.69;;;10.00;55.13
7524;BME280;3803;51.666;7.630;2023-11-22T00:00:56;102011.69;;;10.02;55.09
7524;BME280;3803;51.666;7.630;2023-11-22T00:01:17;102010.78;;;10.01;55.13
7524;BME280;3803;51.666;7.630;2023-11-22T00:01:37;102010.94;;;10.05;55.25
7524;BME280;3803;51.666;7.630;2023-11-22T00:01:58;102001.09;;;9.99;55.25
7524;BME280;3803;51.666;7.630;2023-11-22T00:02:19;102012.47;;;10.01;55.01
7524;BME280;3803;51.666;7.630;2023-11-22T00:02:41;102007.13;;;9.98;55.30
7524;BME280;3803;51.666;7.630;2023-11-22T00:03:01;102011.50;;;9.99;55.26
7524;BME280;3803;51.666;7.630;2023-11-22T00:03:22;102012.47;;;10.01;55.01
7524;BME280;3803;51.666;7.630;2023-11-22T00:03:44;102008.09;;;10.00;54.96
7524;BME280;3803;51.666;7.630;2023-11-22T00:04:04;102018.53;;;10.00;55.19
7524;BME280;3803;51.666;7.630;2023-11-22T00:04:25;102007.03;;;9.96;55.08
7524;BME280;3803;51.666;7.630;2023-11-22T00:04:46;102013.16;;;9.97;55.25
7524;BME280;3803;51.666;7.630;2023-11-22T00:05:07;102025.59;;;10.03;55.12
7524;BME280;3803;51.666;7.630;2023-11-22T00:05:28;102014.22;;;10.00;55.11
7524;BME280;3803;51.666;7.630;2023-11-22T00:05:49;102013.16;;;9.97;55.47
7524;BME280;3803;51.666;7.630;2023-11-22T00:06:09;102020.16;;;9.98;55.30
7524;BME280;3803;51.666;7.630;2023-11-22T00:06:30;102020.16;;;9.98;55.01
7524;BME280;3803;51.666;7.630;2023-11-22T00:06:50;102015.84;;;9.98;55.27
7524;BME280;3803;51.666;7.630;2023-11-22T00:07:11;102020.16;;;9.98;54.90
7524;BME280;3803;51.666;7.630;2023-11-22T00:07:32;102026.53;;;10.03;55.06
7524;BME280;3803;51.666;7.630;2023-11-22T00:07:53;102020.25;;;9.99;55.23
7524;BME280;3803;51.666;7.630;2023-11-22T00:08:14;102024.56;;;9.99;54.96
7524;BME280;3803;51.666;7.630;2023-11-22T00:08:34;102020.16;;;9.98;54.95
7524;BME280;3803;51.666;7.630;2023-11-22T00:08:55;102021.06;;;9.98;55.22
7524;BME280;3803;51.666;7.630;2023-11-22T00:09:15;102020.06;;;9.96;54.97
7524;BME280;3803;51.666;7.630;2023-11-22T00:09:36;102020.03;;;9.95;54.97
7524;BME280;3803;51.666;7.630;2023-11-22T00:09:57;102012.69;;;9.87;55.37
7524;BME280;3803;51.666;7.630;2023-11-22T00:10:18;102016.28;;;9.90;55.41
7524;BME280;3803;51.666;7.630;2023-11-22T00:10:38;102016.28;;;9.90;55.06
7524;BME280;3803;51.666;7.630;2023-11-22T00:10:59;102011.06;;;9.90;55.19
7524;BME280;3803;51.666;7.630;2023-11-22T00:11:20;102014.81;;;9.95;55.20
7524;BME280;3803;51.666;7.630;2023-11-22T00:11:41;102022.69;;;9.96;55.40
7524;BME280;3803;51.666;7.630;2023-11-22T00:12:02;102010.41;;;9.94;55.19
7524;BME280;3803;51.666;7.630;2023-11-22T00:12:24;102007.94;;;9.97;55.10
7524;BME280;3803;51.666;7.630;2023-11-22T00:12:45;102016.59;;;9.96;55.33
7524;BME280;3803;51.666;7.630;2023-11-22T00:13:06;102011.50;;;9.99;55.30
7524;BME280;3803;51.666;7.630;2023-11-22T00:13:26;102016.81;;;10.00;54.89
7524;BME280;3803;51.666;7.630;2023-11-22T00:13:47;102011.44;;;9.97;55.02
7524;BME280;3803;51.666;7.630;2023-11-22T00:14:09;102005.09;;;9.92;55.14
7524;BME280;3803;51.666;7.630;2023-11-22T00:14:30;102006.16;;;9.96;55.11
7524;BME280;3803;51.666;7.630;2023-11-22T00:14:51;102018.59;;;10.01;55.25
7524;BME280;3803;51.666;7.630;2023-11-22T00:15:12;102007.81;;;9.94;55.07
7524;BME280;3803;51.666;7.630;2023-11-22T00:15:33;102004.38;;;9.95;55.02
7524;BME280;3803;51.666;7.630;2023-11-22T00:15:53;102014.03;;;9.97;55.42
7524;BME280;3803;51.666;7.630;2023-11-22T00:16:14;102002.41;;;9.91;55.05
7524;BME280;3803;51.666;7.630;2023-11-22T00:16:34;102015.84;;;9.98;55.05
7524;BME280;3803;51.666;7.630;2023-11-22T00:16:57;102001.69;;;9.93;55.10
7524;BME280;3803;51.666;7.630;2023-11-22T00:17:19;102007.94;;;9.97;55.14
7524;BME280;3803;51.666;7.630;2023-11-22T00:17:40;102016.59;;;9.96;55.01
7524;BME280;3803;51.666;7.630;2023-11-22T00:18:01;102016.59;;;9.96;55.04
7524;BME280;3803;51.666;7.630;2023-11-22T00:18:24;102023.72;;;10.00;55.17
7524;BME280;3803;51.666;7.630;2023-11-22T00:18:46;102016.59;;;9.96;55.18
7524;BME280;3803;51.666;7.630;2023-11-22T00:19:07;102015.09;;;10.01;55.01
7524;BME280;3803;51.666;7.630;2023-11-22T00:19:27;102012.25;;;9.96;54.84
7524;BME280;3803;51.666;7.630;2023-11-22T00:19:48;102021.94;;;9.99;54.72
7524;BME280;3803;51.666;7.630;2023-11-22T00:20:10;102019.19;;;9.96;54.97
7524;BME280;3803;51.666;7.630;2023-11-22T00:20:31;102020.84;;;9.94;54.98
7524;BME280;3803;51.666;7.630;2023-11-22T00:20:52;102028.81;;;9.97;54.91
7524;BME280;3803;51.666;7.630;2023-11-22T00:21:12;102020.03;;;9.95;55.09
7524;BME280;3803;51.666;7.630;2023-11-22T00:21:33;102030.59;;;9.98;55.25
7524;BME280;3803;51.666;7.630;2023-11-22T00:21:54;102031.41;;;9.97;55.02
7524;BME280;3803;51.666;7.630;2023-11-22T00:22:14;102032.25;;;9.96;55.29
7524;BME280;3803;51.666;7.630;2023-11-22T00:22:35;102037.50;;;9.97;54.90
7524;BME280;3803;51.666;7.630;2023-11-22T00:22:56;102033.88;;;9.94;55.26
7524;BME280;3803;51.666;7.630;2023-11-22T00:23:16;102031.41;;;9.97;55.19
7524;BME280;3803;51.666;7.630;2023-11-22T00:23:38;102022.31;;;9.89;55.33
7524;BME280;3803;51.666;7.630;2023-11-22T00:23:59;102032.06;;;9.93;55.12
7524;BME280;3803;51.666;7.630;2023-11-22T00:24:19;102037.44;;;9.96;55.31
7524;BME280;3803;51.666;7.630;2023-11-22T00:24:41;102032.06;;;9.93;55.10
7524;BME280;3803;51.666;7.630;2023-11-22T00:25:02;102049.00;;;10.01;55.20
7524;BME280;3803;51.666;7.630;2023-11-22T00:25:23;102047.31;;;10.01;55.03
7524;BME280;3803;51.666;7.630;2023-11-22T00:25:45;102038.41;;;9.98;54.98
7524;BME280;3803;51.666;7.630;2023-11-22T00:26:05;102027.03;;;9.96;55.29
7524;BME280;3803;51.666;7.630;2023-11-22T00:26:26;102042.81;;;9.99;54.96
7524;BME280;3803;51.666;7.630;2023-11-22T00:26:52;102045.28;;;9.96;55.03
7524;BME280;3803;51.666;7.630;2023-11-22T00:27:12;102037.38;;;9.94;54.98
7524;BME280;3803;51.666;7.630;2023-11-22T00:27:35;102045.50;;;10.00;55.02
7524;BME280;3803;51.666;7.630;2023-11-22T00:27:59;102041.84;;;9.97;55.07
7524;BME280;3803;51.666;7.630;2023-11-22T00:28:19;102048.03;;;9.99;55.08
7524;BME280;3803;51.666;7.630;2023-11-22T00:28:40;102048.94;;;9.99;55.10
7524;BME280;3803;51.666;7.630;2023-11-22T00:29:01;102044.91;;;10.06;55.01
7524;BME280;3803;51.666;7.630;2023-11-22T00:29:22;102028.94;;;10.00;54.85
7524;BME280;3803;51.666;7.630;2023-11-22T00:29:43;102041.03;;;9.98;55.04
7524;BME280;3803;51.666;7.630;2023-11-22T00:30:04;102040.06;;;9.96;55.16
7524;BME280;3803;51.666;7.630;2023-11-22T00:30:25;102034.75;;;9.94;54.91
7524;BME280;3803;51.666;7.630;2023-11-22T00:30:46;102041.75;;;9.95;55.35
7524;BME280;3803;51.666;7.630;2023-11-22T00:31:06;102035.56;;;9.93;54.99
7524;BME280;3803;51.666;7.630;2023-11-22T00:31:27;102028.50;;;9.91;54.95
7524;BME280;3803;51.666;7.630;2023-11-22T00:31:47;102042.50;;;9.93;54.99
7524;BME280;3803;51.666;7.630;2023-11-22T00:32:09;102048.94;;;9.99;55.26
7524;BME280;3803;51.666;7.630;2023-11-22T00:32:31;102037.28;;;9.93;55.31
7524;BME280;3803;51.666;7.630;2023-11-22T00:32:52;102036.63;;;9.97;55.39
7524;BME280;3803;51.666;7.630;2023-11-22T00:33:12;102037.28;;;9.93;55.19
7524;BME280;3803;51.666;7.630;2023-11-22T00:33:34;102032.97;;;9.93;55.08
7524;BME280;3803;51.666;7.630;2023-11-22T00:33:55;102034.13;;;9.98;55.10
7524;BME280;3803;51.666;7.630;2023-11-22T00:34:17;102040.94;;;9.96;55.17
7524;BME280;3803;51.666;7.630;2023-11-22T00:34:37;102049.09;;;10.03;54.90
7524;BME280;3803;51.666;7.630;2023-11-22T00:34:58;102041.72;;;9.94;55.13
7524;BME280;3803;51.666;7.630;2023-11-22T00:35:19;102044.53;;;9.98;55.25
7524;BME280;3803;51.666;7.630;2023-11-22T00:35:39;102046.25;;;9.98;55.21
7524;BME280;3803;51.666;7.630;2023-11-22T00:36:00;102044.59;;;10.00;55.52
7524;BME280;3803;51.666;7.630;2023-11-22T00:36:24;102042.50;;;9.93;55.13
7524;BME280;3803;51.666;7.630;2023-11-22T00:36:46;102043.72;;;9.99;55.02
7524;BME280;3803;51.666;7.630;2023-11-22T00:37:06;102047.81;;;9.94;55.28
7524;BME280;3803;51.666;7.630;2023-11-22T00:37:27;102047.88;;;9.96;55.31
7524;BME280;3803;51.666;7.630;2023-11-22T00:37:47;102047.16;;;9.98;55.24
7524;BME280;3803;51.666;7.630;2023-11-22T00:38:08;102053.16;;;9.97;55.03
7524;BME280;3803;51.666;7.630;2023-11-22T00:38:29;102042.50;;;9.93;55.12
7524;BME280;3803;51.666;7.630;2023-11-22T00:38:50;102046.16;;;9.96;54.98
7524;BME280;3803;51.666;7.630;2023-11-22T00:39:11;102045.28;;;9.96;55.07
7524;BME280;3803;51.666;7.630;2023-11-22T00:39:34;102047.72;;;9.93;55.04
7524;BME280;3803;51.666;7.630;2023-11-22T00:39:55;102034.63;;;9.91;55.00
7524;BME280;3803;51.666;7.630;2023-11-22T00:40:15;102039.97;;;9.94;55.05
7524;BME280;3803;51.666;7.630;2023-11-22T00:40:36;102054.06;;;9.98;55.36
7524;BME280;3803;51.666;7.630;2023-11-22T00:40:59;102038.91;;;9.91;55.42
7524;BME280;3803;51.666;7.630;2023-11-22T00:41:20;102045.28;;;9.96;54.81
7524;BME280;3803;51.666;7.630;2023-11-22T00:41:41;102047.72;;;9.93;55.36
7524;BME280;3803;51.666;7.630;2023-11-22T00:42:02;102052.28;;;9.97;55.21
7524;BME280;3803;51.666;7.630;2023-11-22T00:42:24;102048.53;;;9.92;55.25
7524;BME280;3803;51.666;7.630;2023-11-22T00:42:44;102040.56;;;9.89;55.34
7524;BME280;3803;51.666;7.630;2023-11-22T00:43:05;102053.84;;;9.93;55.28
7524;BME280;3803;51.666;7.630;2023-11-22T00:43:26;102053.25;;;9.99;55.37
7524;BME280;3803;51.666;7.630;2023-11-22T00:43:47;102050.41;;;9.94;55.47
7524;BME280;3803;51.666;7.630;2023-11-22T00:44:08;102047.88;;;9.96;55.29
7524;BME280;3803;51.666;7.630;2023-11-22T00:44:28;102051.47;;;9.98;55.30
7524;BME280;3803;51.666;7.630;2023-11-22T00:44:49;102051.47;;;9.98;55.02
7524;BME280;3803;51.666;7.630;2023-11-22T00:45:11;102044.47;;;9.97;55.29
7524;BME280;3803;51.666;7.630;2023-11-22T00:45:31;102050.56;;;9.97;55.21
7524;BME280;3803;51.666;7.630;2023-11-22T00:45:54;102046.38;;;10.01;55.15
7524;BME280;3803;51.666;7.630;2023-11-22T00:46:14;102052.44;;;10.00;55.08
7524;BME280;3803;51.666;7.630;2023-11-22T00:46:35;102045.34;;;9.97;55.07
7524;BME280;3803;51.666;7.630;2023-11-22T00:46:57;102045.34;;;9.97;54.98
7524;BME280;3803;51.666;7.630;2023-11-22T00:47:18;102051.53;;;9.99;55.25
7524;BME280;3803;51.666;7.630;2023-11-22T00:47:39;102040.88;;;9.95;55.15
7524;BME280;3803;51.666;7.630;2023-11-22T00:48:00;102042.66;;;9.96;55.12
7524;BME280;3803;51.666;7.630;2023-11-22T00:48:21;102055.75;;;9.97;55.01
7524;BME280;3803;51.666;7.630;2023-11-22T00:48:42;102050.56;;;9.97;55.11
7524;BME280;3803;51.666;7.630;2023-11-22T00:49:04;102042.66;;;9.96;55.04
7524;BME280;3803;51.666;7.630;2023-11-22T00:49:28;102047.88;;;9.96;55.12
7524;BME280;3803;51.666;7.630;2023-11-22T00:49:49;102048.84;;;9.98;55.08
7524;BME280;3803;51.666;7.630;2023-11-22T00:50:10;102037.13;;;9.90;54.94
7524;BME280;3803;51.666;7.630;2023-11-22T00:50:31;102051.31;;;9.95;54.89
7524;BME280;3803;51.666;7.630;2023-11-22T00:50:52;102049.22;;;9.87;55.14
7524;BME280;3803;51.666;7.630;2023-11-22T00:51:13;102044.72;;;9.85;55.14
7524;BME280;3803;51.666;7.630;2023-11-22T00:51:33;102047.56;;;9.90;55.31
7524;BME280;3803;51.666;7.630;2023-11-22T00:51:54;102046.44;;;9.84;55.18
7524;BME280;3803;51.666;7.630;2023-11-22T00:52:15;102040.47;;;9.87;55.20
7524;BME280;3803;51.666;7.630;2023-11-22T00:52:35;102044.06;;;9.89;54.82
7524;BME280;3803;51.666;7.630;2023-11-22T00:52:56;102040.97;;;9.80;55.22
7524;BME280;3803;51.666;7.630;2023-11-22T00:53:17;102048.22;;;9.85;55.11
7524;BME280;3803;51.666;7.630;2023-11-22T00:53:39;102041.69;;;9.77;54.86
7524;BME280;3803;51.666;7.630;2023-11-22T00:54:00;102044.41;;;9.79;55.10
7524;BME280;3803;51.666;7.630;2023-11-22T00:54:21;102053.13;;;9.79;54.95
7524;BME280;3803;51.666;7.630;2023-11-22T00:54:41;102038.94;;;9.74;54.87
7524;BME280;3803;51.666;7.630;2023-11-22T00:55:03;102041.47;;;9.72;54.99
7524;BME280;3803;51.666;7.630;2023-11-22T00:55:25;102050.03;;;9.70;55.23
7524;BME280;3803;51.666;7.630;2023-11-22T00:55:47;102054.25;;;9.68;54.98
7524;BME280;3803;51.666;7.630;2023-11-22T00:56:07;102050.59;;;9.64;55.19
7524;BME280;3803;51.666;7.630;2023-11-22T00:56:28;102044.19;;;9.57;55.07
7524;BME280;3803;51.666;7.630;2023-11-22T00:56:49;102037.91;;;9.54;55.06
7524;BME280;3803;51.666;7.630;2023-11-22T00:57:10;102041.97;;;9.49;54.78
7524;BME280;3803;51.666;7.630;2023-11-22T00:57:31;102046.06;;;9.43;55.01
7524;BME280;3803;51.666;7.630;2023-11-22T00:57:51;102045.00;;;9.40;55.14
7524;BME280;3803;51.666;7.630;2023-11-22T00:58:12;102045.50;;;9.32;55.24
7524;BME280;3803;51.666;7.630;2023-11-22T00:58:32;102042.69;;;9.29;55.24
7524;BME280;3803;51.666;7.630;2023-11-22T00:58:53;102055.00;;;9.32;55.20
7524;BME280;3803;51.666;7.630;2023-11-22T00:59:14;102058.03;;;9.23;55.20
7524;BME280;3803;51.666;7.630;2023-11-22T00:59:36;102040.91;;;9.12;55.07
7524;BME280;3803;51.666;7.630;2023-11-22T00:59:57;102053.28;;;9.16;55.25
7524;BME280;3803;51.666;7.630;2023-11-22T01:00:17;102056.88;;;9.18;55.37
7524;BME280;3803;51.666;7.630;2023-11-22T01:00:38;102048.56;;;9.09;55.14
7524;BME280;3803;51.666;7.630;2023-11-22T01:00:58;102066.78;;;9.09;55.22
7524;BME280;3803;51.666;7.630;2023-11-22T01:01:20;102055.22;;;9.03;55.15
7524;BME280;3803;51.666;7.630;2023-11-22T01:01:41;102049.66;;;8.97;55.43
7524;BME280;3803;51.666;7.630;2023-11-22T01:02:02;102048.69;;;8.95;55.21
7524;BME280;3803;51.666;7.630;2023-11-22T01:02:23;102058.13;;;8.93;55.28
7524;BME280;3803;51.666;7.630;2023-11-22T01:02:43;102054.56;;;8.91;55.60
7524;BME280;3803;51.666;7.630;2023-11-22T01:03:04;102052.56;;;8.87;55.70
7524;BME280;3803;51.666;7.630;2023-11-22T01:03:25;102045.94;;;8.77;55.71
7524;BME280;3803;51.666;7.630;2023-11-22T01:03:46;102051.00;;;8.74;55.67
7524;BME280;3803;51.666;7.630;2023-11-22T01:04:09;102055.75;;;8.81;55.23
7524;BME280;3803;51.666;7.630;2023-11-22T01:04:30;102053.75;;;8.77;55.70
7524;BME280;3803;51.666;7.630;2023-11-22T01:04:55;102062.47;;;8.77;55.44
7524;BME280;3803;51.666;7.630;2023-11-22T01:05:16;102055.47;;;8.76;55.54
7524;BME280;3803;51.666;7.630;2023-11-22T01:05:38;102050.28;;;8.76;55.62
7524;BME280;3803;51.666;7.630;2023-11-22T01:05:59;102050.78;;;8.71;55.69
7524;BME280;3803;51.666;7.630;2023-11-22T01:06:19;102043.66;;;8.67;55.62
7524;BME280;3803;51.666;7.630;2023-11-22T01:06:40;102058.53;;;8.69;55.39
7524;BME280;3803;51.666;7.630;2023-11-22T01:07:01;102057.47;;;8.66;55.77
7524;BME280;3803;51.666;7.630;2023-11-22T01:07:22;102059.41;;;8.70;55.57
7524;BME280;3803;51.666;7.630;2023-11-22T01:07:42;102059.97;;;8.64;55.60
7524;BME280;3803;51.666;7.630;2023-11-22T01:08:03;102059.78;;;8.61;55.29
7524;BME280;3803;51.666;7.630;2023-11-22T01:08:24;102059.78;;;8.61;55.60
7524;BME280;3803;51.666;7.630;2023-11-22T01:08:45;102062.38;;;8.61;55.68
7524;BME280;3803;51.666;7.630;2023-11-22T01:09:07;102071.78;;;8.59;55.57
7524;BME280;3803;51.666;7.630;2023-11-22T01:09:29;102064.53;;;8.53;55.64
7524;BME280;3803;51.666;7.630;2023-11-22T01:09:50;102068.91;;;8.54;55.61
7524;BME280;3803;51.666;7.630;2023-11-22T01:10:11;102073.06;;;8.50;55.54
7524;BME280;3803;51.666;7.630;2023-11-22T01:10:31;102073.69;;;8.46;55.57
7524;BME280;3803;51.666;7.630;2023-11-22T01:10:52;102062.13;;;8.41;55.45
7524;BME280;3803;51.666;7.630;2023-11-22T01:11:13;102064.72;;;8.41;55.52
7524;BME280;3803;51.666;7.630;2023-11-22T01:11:35;102070.94;;;8.43;55.46
7524;BME280;3803;51.666;7.630;2023-11-22T01:11:55;102068.94;;;8.39;55.76
7524;BME280;3803;51.666;7.630;2023-11-22T01:12:16;102078.53;;;8.40;55.79
7524;BME280;3803;51.666;7.630;2023-11-22T01:12:37;102075.78;;;8.37;55.58
7524;BME280;3803;51.666;7.630;2023-11-22T01:12:57;102080.16;;;8.38;55.67
7524;BME280;3803;51.666;7.630;2023-11-22T01:13:18;102082.56;;;8.35;55.48
7524;BME280;3803;51.666;7.630;2023-11-22T01:13:39;102082.50;;;8.33;55.78
7524;BME280;3803;51.666;7.630;2023-11-22T01:14:03;102092.25;;;8.38;55.68
7524;BME280;3803;51.666;7.630;2023-11-22T01:14:25;102096.50;;;8.35;55.84
7524;BME280;3803;51.666;7.630;2023-11-22T01:14:47;102091.19;;;8.34;55.88
7524;BME280;3803;51.666;7.630;2023-11-22T01:15:08;102084.41;;;8.36;55.73
7524;BME280;3803;51.666;7.630;2023-11-22T01:15:29;102074.44;;;8.29;55.64
7524;BME280;3803;51.666;7.630;2023-11-22T01:15:49;102074.88;;;8.21;55.66
7524;BME280;3803;51.666;7.630;2023-11-22T01:16:10;102087.25;;;8.26;56.01
7524;BME280;3803;51.666;7.630;2023-11-22T01:16:31;102081.88;;;8.22;55.88
7524;BME280;3803;51.666;7.630;2023-11-22T01:16:53;102077.28;;;8.18;56.09
7524;BME280;3803;51.666;7.630;2023-11-22T01:17:15;102069.31;;;8.15;55.88
7524;BME280;3803;51.666;7.630;2023-11-22T01:17:36;102086.91;;;8.19;55.74
7524;BME280;3803;51.666;7.630;2023-11-22T01:17:57;102072.53;;;8.11;55.57
7524;BME280;3803;51.666;7.630;2023-11-22T01:18:18;102087.34;;;8.12;55.66
7524;BME280;3803;51.666;7.630;2023-11-22T01:18:39;102072.19;;;8.05;55.56
7524;BME280;3803;51.666;7.630;2023-11-22T01:18:59;102066.97;;;8.05;55.79
7524;BME280;3803;51.666;7.630;2023-11-22T01:19:21;102078.38;;;8.07;55.85
7524;BME280;3803;51.666;7.630;2023-11-22T01:19:41;102069.31;;;8.00;55.70
7524;BME280;3803;51.666;7.630;2023-11-22T01:20:06;102086.97;;;8.06;55.92
7524;BME280;3803;51.666;7.630;2023-11-22T01:20:30;102075.28;;;7.99;55.64
7524;BME280;3803;51.666;7.630;2023-11-22T01:20:52;102075.41;;;8.01;55.71
7524;BME280;3803;51.666;7.630;2023-11-22T01:21:12;102067.31;;;7.96;56.17
7524;BME280;3803;51.666;7.630;2023-11-22T01:21:33;102073.44;;;7.97;55.99
7524;BME280;3803;51.666;7.630;2023-11-22T01:21:53;102076.91;;;7.97;55.68
7524;BME280;3803;51.666;7.630;2023-11-22T01:22:14;102075.13;;;7.96;55.82
7524;BME280;3803;51.666;7.630;2023-11-22T01:22:35;102074.84;;;7.91;55.99
7524;BME280;3803;51.666;7.630;2023-11-22T01:22:56;102069.75;;;7.93;55.92
7524;BME280;3803;51.666;7.630;2023-11-22T01:23:17;102086.44;;;7.97;55.87
7524;BME280;3803;51.666;7.630;2023-11-22T01:23:37;102074.84;;;7.91;55.91
7524;BME280;3803;51.666;7.630;2023-11-22T01:23:58;102069.09;;;7.82;55.99
7524;BME280;3803;51.666;7.630;2023-11-22T01:24:19;102080.06;;;7.91;56.15
7524;BME280;3803;51.666;7.630;2023-11-22T01:24:40;102073.59;;;7.85;56.12
7524;BME280;3803;51.666;7.630;2023-11-22T01:25:01;102077.00;;;7.84;56.07
7524;BME280;3803;51.666;7.630;2023-11-22T01:25:22;102087.75;;;7.90;55.94
7524;BME280;3803;51.666;7.630;2023-11-22T01:25:42;102076.25;;;7.86;56.27
7524;BME280;3803;51.666;7.630;2023-11-22T01:26:03;102083.25;;;7.87;56.10
7524;BME280;3803;51.666;7.630;2023-11-22T01:26:24;102076.25;;;7.86;55.97
7524;BME280;3803;51.666;7.630;2023-11-22T01:26:46;102074.41;;;7.84;56.21
7524;BME280;3803;51.666;7.630;2023-11-22T01:27:06;102069.09;;;7.82;56.11
7524;BME280;3803;51.666;7.630;2023-11-22T01:27:27;102076.19;;;7.85;56.05
7524;BME280;3803;51.666;7.630;2023-11-22T01:27:49;102081.47;;;7.86;56.16
7524;BME280;3803;51.666;7.630;2023-11-22T01:28:09;102078.78;;;7.85;55.72
7524;BME280;3803;51.666;7.630;2023-11-22T01:28:31;102082.81;;;7.79;55.81
7524;BME280;3803;51.666;7.630;2023-11-22T01:28:55;102080.09;;;7.78;55.86
7524;BME280;3803;51.666;7.630;2023-11-22T01:29:16;102086.66;;;7.86;56.18
7524;BME280;3803;51.666;7.630;2023-11-22T01:29:37;102084.69;;;7.82;56.07
7524;BME280;3803;51.666;7.630;2023-11-22T01:29:58;102085.13;;;7.75;55.69
7524;BME280;3803;51.666;7.630;2023-11-22T01:30:18;102086.22;;;7.78;56.28
7524;BME280;3803;51.666;7.630;2023-11-22T01:30:39;102087.72;;;7.75;55.86
7524;BME280;3803;51.666;7.630;2023-11-22T01:31:00;102093.91;;;7.77;56.19
7524;BME280;3803;51.666;7.630;2023-11-22T01:31:22;102088.53;;;7.74;56.22
7524;BME280;3803;51.666;7.630;2023-11-22T01:31:43;102096.50;;;7.77;56.07
7524;BME280;3803;51.666;7.630;2023-11-22T01:32:04;102097.22;;;7.74;55.86
7524;BME280;3803;51.666;7.630;2023-11-22T01:32:25;102085.56;;;7.67;56.27
7524;BME280;3803;51.666;7.630;2023-11-22T01:32:46;102086.63;;;7.71;55.86
7524;BME280;3803;51.666;7.630;2023-11-22T01:33:07;102087.34;;;7.68;56.29
7524;BME280;3803;51.666;7.630;2023-11-22T01:33:27;102089.13;;;7.70;56.08
7524;BME280;3803;51.666;7.630;2023-11-22T01:33:48;102082.84;;;7.66;55.77
7524;BME280;3803;51.666;7.630;2023-11-22T01:34:09;102086.09;;;7.62;55.84
7524;BME280;3803;51.666;7.630;2023-11-22T01:34:29;102092.16;;;7.62;55.83
7524;BME280;3803;51.666;7.630;2023-11-22T01:34:50;102092.25;;;7.64;56.10
7524;BME280;3803;51.666;7.630;2023-11-22T01:35:11;102080.59;;;7.57;56.31
7524;BME280;3803;51.666;7.630;2023-11-22T01:35:32;102084.78;;;7.55;56.20
7524;BME280;3803;51.666;7.630;2023-11-22T01:35:54;102087.50;;;7.57;56.12
7524;BME280;3803;51.666;7.630;2023-11-22T01:36:15;102091.59;;;7.53;56.00
7524;BME280;3803;51.666;7.630;2023-11-22T01:36:42;102086.50;;;7.54;56.16
7524;BME280;3803;51.666;7.630;2023-11-22T01:37:04;102091.50;;;7.51;55.90
7524;BME280;3803;51.666;7.630;2023-11-22T01:37:24;102087.81;;;7.48;56.19
7524;BME280;3803;51.666;7.630;2023-11-22T01:37:45;102092.13;;;7.47;56.44
7524;BME280;3803;51.666;7.630;2023-11-22T01:38:06;102083.94;;;7.41;56.05
7524;BME280;3803;51.666;7.630;2023-11-22T01:38:27;102085.84;;;7.44;56.30
7524;BME280;3803;51.666;7.630;2023-11-22T01:38:48;102089.03;;;7.39;55.86
7524;BME280;3803;51.666;7.630;2023-11-22T01:39:11;102085.44;;;7.37;56.00
7524;BME280;3803;51.666;7.630;2023-11-22T01:39:33;102094.22;;;7.39;55.87
7524;BME280;3803;51.666;7.630;2023-11-22T01:39:54;102098.31;;;7.36;55.99
7524;BME280;3803;51.666;7.630;2023-11-22T01:40:15;102106.03;;;7.34;56.12
7524;BME280;3803;51.666;7.630;2023-11-22T01:40:43;102093.88;;;7.33;56.24
7524;BME280;3803;51.666;7.630;2023-11-22T01:41:04;102085.88;;;7.30;56.42
7524;BME280;3803;51.666;7.630;2023-11-22T01:41:25;102091.00;;;7.29;56.09
7524;BME280;3803;51.666;7.630;2023-11-22T01:41:46;102103.34;;;7.33;56.46
7524;BME280;3803;51.666;7.630;2023-11-22T01:42:09;102102.25;;;7.29;56.07
7524;BME280;3803;51.666;7.630;2023-11-22T01:42:30;102088.06;;;7.24;55.91
7524;BME280;3803;51.666;7.630;2023-11-22T01:42:51;102093.09;;;7.21;55.87
7524;BME280;3803;51.666;7.630;2023-11-22T01:43:17;102107.16;;;7.24;56.16
7524;BME280;3803;51.666;7.630;2023-11-22T01:43:39;102095.56;;;7.19;56.11
7524;BME280;3803;51.666;7.630;2023-11-22T01:44:02;102088.69;;;7.20;56.34
7524;BME280;3803;51.666;7.630;2023-11-22T01:44:23;102100.97;;;7.22;56.42
7524;BME280;3803;51.666;7.630;2023-11-22T01:44:44;102090.19;;;7.16;56.39
7524;BME280;3803;51.666;7.630;2023-11-22T01:45:06;102100.06;;;7.22;56.17
7524;BME280;3803;51.666;7.630;2023-11-22T01:45:27;102104.16;;;7.18;56.43
7524;BME280;3803;51.666;7.630;2023-11-22T01:45:47;102104.97;;;7.17;56.32
7524;BME280;3803;51.666;7.630;2023-11-22T01:46:10;102105.97;;;7.19;56.10
7524;BME280;3803;51.666;7.630;2023-11-22T01:46:34;102105.25;;;7.22;56.02
7524;BME280;3803;51.666;7.630;2023-11-22T01:46:55;102098.09;;;7.18;56.13
7524;BME280;3803;51.666;7.630;2023-11-22T01:47:18;102114.56;;;7.18;56.20
7524;BME280;3803;51.666;7.630;2023-11-22T01:47:40;102104.56;;;7.11;55.67
7524;BME280;3803;51.666;7.630;2023-11-22T01:48:02;102103.59;;;7.09;56.11
7524;BME280;3803;51.666;7.630;2023-11-22T01:48:23;102102.72;;;7.08;56.31
7524;BME280;3803;51.666;7.630;2023-11-22T01:48:44;102100.88;;;7.07;55.84
7524;BME280;3803;51.666;7.630;2023-11-22T01:49:05;102113.28;;;7.11;56.32
7524;BME280;3803;51.666;7.630;2023-11-22T01:49:26;102113.28;;;7.11;56.32
7524;BME280;3803;51.666;7.630;2023-11-22T01:49:46;102110.28;;;7.05;56.05
7524;BME280;3803;51.666;7.630;2023-11-22T01:50:08;102107.69;;;7.05;56.34
7524;BME280;3803;51.666;7.630;2023-11-22T01:50:29;102107.69;;;7.05;56.42
7524;BME280;3803;51.666;7.630;2023-11-22T01:50:51;102100.69;;;7.04;56.06
7524;BME280;3803;51.666;7.630;2023-11-22T01:51:11;102110.28;;;7.05;56.04
7524;BME280;3803;51.666;7.630;2023-11-22T01:51:32;102110.28;;;7.05;56.49
7524;BME280;3803;51.666;7.630;2023-11-22T01:51:53;102113.16;;;7.10;56.22
7524;BME280;3803;51.666;7.630;2023-11-22T01:52:15;102117.38;;;7.08;56.39
7524;BME280;3803;51.666;7.630;2023-11-22T01:52:36;102116.09;;;7.01;56.44
7524;BME280;3803;51.666;7.630;2023-11-22T01:52:58;102116.97;;;7.02;56.38
7524;BME280;3803;51.666;7.630;2023-11-22T01:53:19;102110.69;;;6.98;56.27
7524;BME280;3803;51.666;7.630;2023-11-22T01:53:42;102104.63;;;6.97;56.03
7524;BME280;3803;51.666;7.630;2023-11-22T01:54:03;102111.38;;;6.95;56.15
7524;BME280;3803;51.666;7.630;2023-11-22T01:54:24;102110.28;;;6.92;56.26
7524;BME280;3803;51.666;7.630;2023-11-22T01:54:45;102114.59;;;6.91;56.48
7524;BME280;3803;51.666;7.630;2023-11-22T01:55:07;102109.19;;;6.88;56.30